METAR Data
IDs: Format: Raw Decoded Include TAF

Data at: 2122 UTC 19 May 2019

PATO 192053Z AUTO 00000KT 4SM RA BR FEW006 OVC025 07/07 A2977 RMK AO2 SLP082 P0008 60028 T00720067 53002 TSNO
PATO 192018Z AUTO VRB03KT 4SM RA BR BKN022 OVC030 07/06 A2977 RMK AO2 P0005 T00670061 TSNO
PATO 191953Z AUTO VRB03KT 5SM RA BR OVC034 07/06 A2976 RMK AO2 SLP079 P0009 T00720061 TSNO
PATO 191853Z AUTO VRB05KT 5SM RA BR FEW028 OVC036 07/06 A2976 RMK AO2 SLP078 P0011 T00720061 TSNO
PATO 191753Z AUTO 14006G16KT 3SM RA BR OVC032 07/06 A2976 RMK AO2 SLP080 P0020 60048 T00670056 10078 20061 53003 TSNO
PATO 191718Z AUTO 12007KT 2 1/2SM RA BR SCT029 OVC036 07/06 A2976 RMK AO2 P0008 T00670056 TSNO
PATO 191653Z AUTO 13006KT 3SM RA BR FEW030 OVC037 07/06 A2976 RMK AO2 SLP078 P0012 T00670056 TSNO
PATO 191553Z AUTO 10008KT 3SM RA BR FEW030 BKN038 OVC046 07/06 A2975 RMK AO2 SLP076 P0008 T00670061 TSNO
PATO 191453Z AUTO VRB05KT 6SM -RA BR OVC039 07/06 A2976 RMK AO2 SLP078 P0005 60008 T00670056 56014 TSNO
PATO 191353Z AUTO 4SM RA BR FEW010 OVC041 07/06 A2978 RMK AO2 RAB1255 SLP085 P0003 T00670056 TSNO
PATO 191253Z AUTO 00000KT 10SM SCT047 OVC060 06/06 A2978 RMK AO2 RAB02E45 SLP085 P0000 T00610056 TSNO
PATO 191153Z AUTO 02003KT 10SM FEW019 BKN032 OVC038 07/06 A2980 RMK AO2 RAE53 SLP092 P0000 60004 70011 T00670056 10072 20061 58004 TSNO
PATO 191143Z AUTO 00000KT 10SM -RA FEW025 BKN030 OVC037 06/06 A2981 RMK AO2 P0000 T00610056 TSNO
PATO 191124Z AUTO 13005KT 10SM -RA OVC028 07/06 A2981 RMK AO2 P0000 T00670056 TSNO
PATO 191053Z AUTO 07004KT 10SM -RA OVC033 06/06 A2982 RMK AO2 SLP099 P0001 T00610056 TSNO
PATO 190953Z AUTO VRB03KT 7SM -RA BKN040 OVC050 07/06 A2982 RMK AO2 SLP098 P0003 T00720056 TSNO
PATO 190853Z AUTO 00000KT 10SM -RA OVC041 07/05 A2981 RMK AO2 RAB31E37B50 SLP095 P0000 60000 T00670050 401000022 58009 TSNO
PATO 190753Z AUTO VRB04KT 10SM OVC041 07/05 A2983 RMK AO2 RAE37 SLP100 P0000 T00670050 TSNO
PATO 190653Z AUTO 00000KT 10SM -RA BKN044 OVC050 07/06 A2983 RMK AO2 RAB12 SLP104 P0000 T00670056 TSNO
PATO 190553Z AUTO 09004KT 10SM SCT042 OVC050 07/05 A2984 RMK AO2 RAB0455E04 SLP106 P0000 60006 T00720050 10083 20067 57008 TSNO
PATO 190453Z AUTO VRB03KT 10SM BKN037 OVC065 08/05 A2985 RMK AO2 SLP110 T00780050 TSNO
PATO 190353Z AUTO 10SM FEW026 BKN033 OVC044 08/06 A2985 RMK AO2 RAE10 SLP110 P0000 T00830056 TSNO
PATO 190322Z AUTO VRB04KT 10SM SCT026 BKN038 OVC055 07/06 A2986 RMK AO2 RAE10 P0000 T00720061 TSNO
PATO 190253Z AUTO 14006KT 7SM -RA BKN025 OVC034 07/06 A2987 RMK AO2 SLP114 P0000 60006 T00670061 51001 TSNO
PATO 190248Z AUTO 14007KT 5SM -RA BR BKN025 OVC034 07/06 A2986 RMK AO2 P0000 TSNO
PATO 190234Z AUTO 15007KT 100V170 4SM -RA BR SCT024 BKN032 OVC041 07/06 A2986 RMK AO2 P0000 T00720061 TSNO
PATO 190153Z AUTO 13009G16KT 8SM -RA BKN029 OVC036 07/06 A2986 RMK AO2 SLP113 P0002 T00720061 TSNO
PATO 190053Z AUTO 11015G22KT 6SM -RA FEW021 BKN030 OVC049 08/05 A2986 RMK AO2 SLP113 P0004 T00780050 TSNO
PATO 182353Z AUTO 13006KT 5SM -RA BR OVC032 08/06 A2985 RMK AO2 SLP110 P0001 60001 T00780061 10100 20067 53009 TSNO
PATO 182253Z AUTO 14006KT 7SM -RA OVC030 08/06 A2985 RMK AO2 RAB44 SLP108 P0000 T00830061 TSNO
PATO 182153Z AUTO 13007KT 090V160 10SM FEW032 BKN041 OVC060 10/06 A2984 RMK AO2 SLP104 T01000056 TSNO
PATO 182053Z AUTO 14007G15KT 100V180 10SM FEW030 SCT036 BKN045 09/05 A2983 RMK AO2 SLP102 60000 T00940050 51010 TSNO
PATO 181953Z AUTO VRB05KT 10SM FEW030 OVC040 09/06 A2982 RMK AO2 RAE05B33E43 SLP099 P0000 T00890056 TSNO
PATO 181853Z AUTO VRB05KT 9SM -RA OVC034 08/05 A2981 RMK AO2 SLP097 P0000 T00780050 TSNO
PATO 181753Z AUTO 09004KT 10SM -RA OVC043 07/03 A2980 RMK AO2 RAB34 SLP092 P0000 60000 T00670028 10078 20028 53009 TSNO
PATO 181653Z AUTO 00000KT 10SM OVC060 07/03 A2978 RMK AO2 SLP083 T00720033 TSNO
PATO 181553Z AUTO 00000KT 10SM OVC060 06/04 A2977 RMK AO2 RAE02 SLP083 P0000 T00560039 TSNO
PATO 181453Z AUTO 00000KT 10SM -RA OVC060 04/03 A2977 RMK AO2 RAB48 SLP082 P0000 60000 T00440033 51003 TSNO
PATO 181353Z AUTO 00000KT 10SM OVC060 03/03 A2977 RMK AO2 SLP082 T00330033 TSNO
PATO 181253Z AUTO 00000KT 10SM OVC060 04/03 A2977 RMK AO2 SLP081 T00390033 TSNO
PATO 181153Z AUTO 00000KT 10SM OVC060 03/03 A2976 RMK AO2 SLP079 70006 T00280028 10072 20022 53002 TSNO
PATO 181053Z AUTO 00000KT 10SM OVC060 03/03 A2976 RMK AO2 SLP078 T00330028 TSNO
PATO 180953Z AUTO 15003KT 10SM OVC055 03/03 A2976 RMK AO2 SLP077 T00330028 TSNO